Time;durP1;ratioP1;P1;durP2;ratioP2;P2;SDS_P1;SDS_P2;PMS_P1;PMS_P2;Temp;Humidity;BMP_temperature;BMP_pressure;BME280_temperature;BME280_humidity;BME280_pressure;Samples;Min_cycle;Max_cycle;Signal;HPM_P1;HPM_P2
2023/01/05 00:00:12;;;;;;;9.23;2.20;;;;;;;;;;4979326;28;93357;-70
2023/01/05 00:02:38;;;;;;;10.40;2.17;;;;;;;;;;4980334;28;92438;-71
2023/01/05 00:05:05;;;;;;;10.00;2.00;;;;;;;;;;4983913;28;92259;-72
2023/01/05 00:07:32;;;;;;;10.95;2.13;;;;;;;;;;4990107;28;92774;-71
2023/01/05 00:09:59;;;;;;;8.15;1.98;;;;;;;;;;4992698;28;91456;-71
2023/01/05 00:23:50;;;;;;;10.05;2.17;;;;;;;;;;4972786;28;92066;-69
2023/01/05 00:26:17;;;;;;;8.95;1.65;;;;;;;;;;4979601;28;92543;-71
2023/01/05 00:28:44;;;;;;;10.40;1.98;;;;;;;;;;4972434;28;94434;-70
2023/01/05 00:31:11;;;;;;;9.70;1.98;;;;;;;;;;4983248;28;92623;-69
2023/01/05 00:33:38;;;;;;;7.82;2.10;;;;;;;;;;4965208;28;92554;-69
2023/01/05 00:36:09;;;;;;;9.70;2.25;;;;;;;;;;4986628;28;92309;-69
2023/01/05 00:38:36;;;;;;;9.23;2.15;;;;;;;;;;4965736;28;92302;-71
2023/01/05 00:41:05;;;;;;;12.90;2.80;;;;;;;;;;4969441;28;92416;-61
2023/01/05 00:43:31;;;;;;;15.82;3.05;;;;;;;;;;4963294;28;94817;-61
2023/01/05 00:45:57;;;;;;;18.67;3.20;;;;;;;;;;4963478;28;95652;-64
2023/01/05 00:48:24;;;;;;;17.33;3.53;;;;;;;;;;4961533;28;94324;-61
2023/01/05 00:50:50;;;;;;;20.08;3.20;;;;;;;;;;4965209;28;92344;-61
2023/01/05 00:53:16;;;;;;;18.80;3.78;;;;;;;;;;4982254;28;93031;-61
2023/01/05 00:55:43;;;;;;;21.00;3.42;;;;;;;;;;4983569;28;92647;-61
2023/01/05 00:58:10;;;;;;;20.88;3.45;;;;;;;;;;4979318;28;93704;-61
2023/01/05 01:00:37;;;;;;;20.80;3.65;;;;;;;;;;4982984;28;95275;-60
2023/01/05 01:03:12;;;;;;;15.90;3.53;;;;;;;;;;4984192;28;95597;-61
2023/01/05 01:05:39;;;;;;;22.42;4.07;;;;;;;;;;4982419;28;92666;-61
2023/01/05 01:08:05;;;;;;;23.42;3.97;;;;;;;;;;4979709;28;97315;-61
2023/01/05 01:10:31;;;;;;;20.02;3.55;;;;;;;;;;4983167;28;92217;-62
2023/01/05 01:12:58;;;;;;;17.25;3.55;;;;;;;;;;4982826;28;93326;-61
2023/01/05 01:15:24;;;;;;;17.65;3.33;;;;;;;;;;4983024;28;92866;-61
2023/01/05 01:17:50;;;;;;;23.48;3.65;;;;;;;;;;4982394;28;92126;-62
2023/01/05 01:20:17;;;;;;;21.30;3.47;;;;;;;;;;4982901;28;92469;-62
2023/01/05 01:22:44;;;;;;;18.05;3.40;;;;;;;;;;4982706;28;92828;-62
2023/01/05 01:25:10;;;;;;;18.65;3.20;;;;;;;;;;4986545;28;91291;-61
2023/01/05 01:27:37;;;;;;;19.90;3.65;;;;;;;;;;4980965;28;93273;-61
2023/01/05 01:30:04;;;;;;;22.73;3.78;;;;;;;;;;4974562;28;92197;-61
2023/01/05 01:32:30;;;;;;;19.60;3.60;;;;;;;;;;4980263;28;94975;-62
2023/01/05 01:34:56;;;;;;;19.23;3.20;;;;;;;;;;4981246;28;93661;-61
2023/01/05 01:37:23;;;;;;;24.00;4.32;;;;;;;;;;4981362;28;92416;-61
2023/01/05 01:39:52;;;;;;;20.85;3.80;;;;;;;;;;4981608;28;92572;-61
2023/01/05 01:42:19;;;;;;;22.30;3.40;;;;;;;;;;4980957;28;92843;-61
2023/01/05 01:44:53;;;;;;;17.52;3.05;;;;;;;;;;4998151;28;92534;-61
2023/01/05 01:47:32;;;;;;;17.95;3.28;;;;;;;;;;4984036;28;92502;-61
2023/01/05 01:50:00;;;;;;;22.38;3.60;;;;;;;;;;4969651;28;91305;-61
2023/01/05 01:52:28;;;;;;;19.17;3.80;;;;;;;;;;4998033;28;93257;-62
2023/01/05 01:54:55;;;;;;;23.05;3.22;;;;;;;;;;4997698;28;95490;-61
2023/01/05 01:57:22;;;;;;;18.10;3.58;;;;;;;;;;4980727;28;94796;-60
2023/01/05 01:59:49;;;;;;;22.30;3.63;;;;;;;;;;4980906;28;97065;-62
2023/01/05 02:02:16;;;;;;;22.35;4.05;;;;;;;;;;4981906;28;92383;-61
2023/01/05 02:04:43;;;;;;;23.45;3.90;;;;;;;;;;4981016;28;92611;-61
2023/01/05 02:07:10;;;;;;;21.27;4.20;;;;;;;;;;4985287;28;92613;-61
2023/01/05 02:09:37;;;;;;;18.80;4.10;;;;;;;;;;4982504;28;92332;-62
2023/01/05 02:12:04;;;;;;;20.23;3.60;;;;;;;;;;4980743;28;94840;-61
2023/01/05 02:14:49;;;;;;;20.65;3.78;;;;;;;;;;4982535;28;92061;-61
2023/01/05 02:17:27;;;;;;;21.35;4.07;;;;;;;;;;4982079;28;92321;-62
2023/01/05 02:19:54;;;;;;;21.10;3.90;;;;;;;;;;4980937;28;93894;-59
2023/01/05 02:22:20;;;;;;;22.92;4.47;;;;;;;;;;4978879;28;95447;-61
2023/01/05 02:25:07;;;;;;;20.73;3.72;;;;;;;;;;4981941;28;92498;-62
2023/01/05 02:27:34;;;;;;;20.60;3.60;;;;;;;;;;4973152;28;94819;-61
2023/01/05 02:30:16;;;;;;;22.80;4.32;;;;;;;;;;4985112;28;93166;-62
2023/01/05 02:33:01;;;;;;;21.08;3.83;;;;;;;;;;4977659;28;94415;-61
2023/01/05 02:35:33;;;;;;;23.55;4.28;;;;;;;;;;4979462;28;92610;-61
2023/01/05 02:38:20;;;;;;;21.90;4.13;;;;;;;;;;4984050;28;92697;-61
2023/01/05 02:40:50;;;;;;;26.00;4.05;;;;;;;;;;4970967;28;95180;-62
2023/01/05 02:43:19;;;;;;;21.23;4.15;;;;;;;;;;4985871;28;92732;-61
2023/01/05 02:45:46;;;;;;;23.08;4.00;;;;;;;;;;4980739;28;92714;-62
2023/01/05 02:48:13;;;;;;;;;;;;;;;;;;4995667;28;95215;-61
2023/01/05 02:50:48;;;;;;;22.10;3.67;;;;;;;;;;4983156;28;93546;-61
2023/01/05 02:53:44;;;;;;;20.33;3.60;;;;;;;;;;5000142;28;92798;-61
2023/01/05 02:56:33;;;;;;;20.10;3.92;;;;;;;;;;4973156;28;92425;-62
2023/01/05 02:59:03;;;;;;;21.50;3.92;;;;;;;;;;4993039;28;92312;-62
2023/01/05 03:01:32;;;;;;;21.50;3.45;;;;;;;;;;4981836;28;92601;-62
2023/01/05 03:04:01;;;;;;;22.42;4.10;;;;;;;;;;4980900;28;92678;-61
2023/01/05 03:06:33;;;;;;;20.98;4.00;;;;;;;;;;4981273;28;91406;-61
2023/01/05 03:09:03;;;;;;;21.80;3.30;;;;;;;;;;4981520;28;92693;-62
2023/01/05 03:14:29;;;;;;;19.88;3.72;;;;;;;;;;4978278;28;94543;-62
2023/01/05 03:16:58;;;;;;;22.98;4.03;;;;;;;;;;4984496;28;94819;-62
2023/01/05 03:19:40;;;;;;;19.88;3.22;;;;;;;;;;4980147;28;92469;-62
2023/01/05 03:36:12;;;;;;;21.10;3.22;;;;;;;;;;4970374;28;92588;-61
2023/01/05 03:38:43;;;;;;;17.98;3.40;;;;;;;;;;4995783;28;94492;-61
2023/01/05 03:41:11;;;;;;;22.48;3.55;;;;;;;;;;4988676;28;97111;-59
2023/01/05 03:43:40;;;;;;;23.30;3.63;;;;;;;;;;4988320;28;97024;-61
2023/01/05 03:46:12;;;;;;;21.15;3.60;;;;;;;;;;4983477;28;92706;-62
2023/01/05 03:48:39;;;;;;;17.00;3.67;;;;;;;;;;4982889;28;92630;-61
2023/01/05 03:51:06;;;;;;;21.83;3.33;;;;;;;;;;4983697;28;94248;-61
2023/01/05 03:53:35;;;;;;;18.90;3.22;;;;;;;;;;4982648;28;92816;-61
2023/01/05 03:56:01;;;;;;;19.30;3.33;;;;;;;;;;4984620;28;91952;-62
2023/01/05 03:58:28;;;;;;;22.45;4.22;;;;;;;;;;4983520;28;94647;-61
2023/01/05 04:00:55;;;;;;;16.73;3.10;;;;;;;;;;4969508;28;94489;-61
2023/01/05 04:03:23;;;;;;;19.80;3.35;;;;;;;;;;5001514;28;92398;-60
2023/01/05 04:05:57;;;;;;;18.85;3.33;;;;;;;;;;4981589;28;97056;-62
2023/01/05 04:08:26;;;;;;;18.23;3.20;;;;;;;;;;4999023;28;92129;-62
2023/01/05 04:10:53;;;;;;;20.55;3.30;;;;;;;;;;4984591;28;93297;-62
2023/01/05 04:13:19;;;;;;;19.50;3.45;;;;;;;;;;4982486;28;92904;-60
2023/01/05 04:15:46;;;;;;;19.15;3.08;;;;;;;;;;4983132;28;92426;-62
2023/01/05 04:18:12;;;;;;;18.30;3.47;;;;;;;;;;4982239;28;94646;-61
2023/01/05 04:20:39;;;;;;;24.70;3.33;;;;;;;;;;4984285;28;92983;-62
2023/01/05 04:23:06;;;;;;;20.50;3.72;;;;;;;;;;4985802;28;91513;-62
2023/01/05 04:25:34;;;;;;;;;;;;;;;;;;4983182;28;95211;-61
2023/01/05 04:28:10;;;;;;;20.15;3.45;;;;;;;;;;4985307;28;91993;-60
2023/01/05 04:30:37;;;;;;;20.50;3.83;;;;;;;;;;4981353;28;94626;-61
2023/01/05 04:33:03;;;;;;;19.33;3.08;;;;;;;;;;4982275;28;95054;-61
2023/01/05 04:35:31;;;;;;;21.58;3.72;;;;;;;;;;4980838;28;92367;-61
2023/01/05 04:37:58;;;;;;;20.33;3.08;;;;;;;;;;4993876;28;94308;-62
2023/01/05 04:40:25;;;;;;;20.13;3.15;;;;;;;;;;4982801;28;92899;-61
2023/01/05 04:42:52;;;;;;;18.50;3.30;;;;;;;;;;4972059;28;92412;-61
2023/01/05 04:45:19;;;;;;;17.05;3.17;;;;;;;;;;4986829;28;92473;-61
2023/01/05 04:47:46;;;;;;;20.83;3.25;;;;;;;;;;4982680;28;91377;-61
2023/01/05 04:50:16;;;;;;;17.17;3.53;;;;;;;;;;4982331;28;94573;-62
2023/01/05 04:52:44;;;;;;;22.85;3.80;;;;;;;;;;4980724;28;92726;-62
2023/01/05 04:55:11;;;;;;;17.48;2.80;;;;;;;;;;4997309;28;94861;-61
2023/01/05 04:57:38;;;;;;;20.23;2.92;;;;;;;;;;4998054;28;95497;-61
2023/01/05 05:00:07;;;;;;;19.63;3.33;;;;;;;;;;4998655;28;95110;-61
2023/01/05 05:02:35;;;;;;;18.13;3.13;;;;;;;;;;4998828;28;92713;-61
2023/01/05 05:05:01;;;;;;;18.10;3.30;;;;;;;;;;4983581;28;92532;-62
2023/01/05 05:07:28;;;;;;;18.13;3.53;;;;;;;;;;4986136;28;93113;-62
2023/01/05 05:09:56;;;;;;;19.95;3.72;;;;;;;;;;4982152;28;92077;-61
2023/01/05 05:12:23;;;;;;;22.83;3.38;;;;;;;;;;4988417;28;92146;-59
2023/01/05 05:14:50;;;;;;;;;;;;;;;;;;4981960;28;92270;-62
2023/01/05 05:17:17;;;;;;;17.88;3.08;;;;;;;;;;4983756;28;118351;-61
2023/01/05 05:19:43;;;;;;;19.63;3.40;;;;;;;;;;4981068;28;95079;-62
2023/01/05 05:22:11;;;;;;;20.02;3.28;;;;;;;;;;4981816;28;92528;-62
2023/01/05 05:24:37;;;;;;;17.33;3.05;;;;;;;;;;4983125;28;92550;-62
2023/01/05 05:27:04;;;;;;;26.52;3.80;;;;;;;;;;4976990;28;92755;-61
2023/01/05 05:29:30;;;;;;;21.27;3.33;;;;;;;;;;4983673;28;92493;-61
2023/01/05 05:31:56;;;;;;;22.65;4.00;;;;;;;;;;4982425;28;92863;-62
2023/01/05 05:34:23;;;;;;;18.90;3.45;;;;;;;;;;4982678;28;92477;-60
2023/01/05 05:36:49;;;;;;;20.60;3.58;;;;;;;;;;4977070;28;93336;-61
2023/01/05 05:39:15;;;;;;;21.73;3.00;;;;;;;;;;4982726;28;92786;-61
2023/01/05 05:41:42;;;;;;;22.38;4.00;;;;;;;;;;4982705;28;92156;-60
2023/01/05 05:44:08;;;;;;;18.38;2.85;;;;;;;;;;4980949;28;94472;-61
2023/01/05 05:46:35;;;;;;;20.83;3.03;;;;;;;;;;4982224;28;92222;-61
2023/01/05 05:49:01;;;;;;;22.70;3.33;;;;;;;;;;4982673;28;92042;-61
2023/01/05 05:51:28;;;;;;;19.23;3.53;;;;;;;;;;4985599;28;92601;-61
2023/01/05 05:53:54;;;;;;;25.35;3.42;;;;;;;;;;4982326;28;92298;-61
2023/01/05 05:56:21;;;;;;;21.25;3.65;;;;;;;;;;4982732;28;92430;-59
2023/01/05 05:58:48;;;;;;;20.88;3.83;;;;;;;;;;4981819;28;93310;-61
2023/01/05 06:01:14;;;;;;;20.60;4.03;;;;;;;;;;4983347;28;91534;-61
2023/01/05 06:03:40;;;;;;;20.35;3.72;;;;;;;;;;4981437;28;93833;-61
2023/01/05 06:06:07;;;;;;;20.83;3.55;;;;;;;;;;4982467;28;92191;-61
2023/01/05 06:08:33;;;;;;;18.15;3.70;;;;;;;;;;4995830;28;94665;-61
2023/01/05 06:11:00;;;;;;;24.52;3.75;;;;;;;;;;4985178;28;94869;-61
2023/01/05 06:13:26;;;;;;;24.02;3.67;;;;;;;;;;4982015;28;92064;-60
2023/01/05 06:15:52;;;;;;;24.05;3.33;;;;;;;;;;4982310;28;92429;-59
2023/01/05 06:18:19;;;;;;;22.08;3.38;;;;;;;;;;4981869;28;93700;-63
2023/01/05 06:20:45;;;;;;;24.45;3.72;;;;;;;;;;4982509;28;91957;-62
2023/01/05 06:23:12;;;;;;;20.05;3.60;;;;;;;;;;4981884;28;92514;-63
2023/01/05 06:25:39;;;;;;;24.45;4.20;;;;;;;;;;4982735;28;92309;-62
2023/01/05 06:28:05;;;;;;;20.27;3.28;;;;;;;;;;4981916;28;92371;-61
2023/01/05 06:30:32;;;;;;;21.48;3.63;;;;;;;;;;4982490;28;92881;-61
2023/01/05 06:32:58;;;;;;;18.27;3.47;;;;;;;;;;4982930;28;94983;-61
2023/01/05 06:35:24;;;;;;;18.83;3.28;;;;;;;;;;4980028;28;94988;-62
2023/01/05 06:37:51;;;;;;;17.92;3.03;;;;;;;;;;4978003;28;93643;-62
2023/01/05 06:40:17;;;;;;;22.20;3.72;;;;;;;;;;4982148;28;92044;-60
2023/01/05 06:42:44;;;;;;;23.33;3.80;;;;;;;;;;4981751;28;92433;-61
2023/01/05 06:45:12;;;;;;;17.65;3.40;;;;;;;;;;4981666;28;92960;-61
2023/01/05 06:47:39;;;;;;;24.95;4.32;;;;;;;;;;4981550;28;92402;-59
2023/01/05 06:50:06;;;;;;;21.00;4.07;;;;;;;;;;4982429;28;92654;-61
2023/01/05 06:52:35;;;;;;;21.23;4.30;;;;;;;;;;4981215;28;92772;-61
2023/01/05 06:55:02;;;;;;;20.30;3.25;;;;;;;;;;4984658;28;92002;-61
2023/01/05 06:57:28;;;;;;;29.17;4.30;;;;;;;;;;4979969;28;95139;-62
2023/01/05 06:59:55;;;;;;;23.45;4.75;;;;;;;;;;4982184;28;92504;-61
2023/01/05 07:02:21;;;;;;;20.85;4.30;;;;;;;;;;4981771;28;92594;-63
2023/01/05 07:04:48;;;;;;;20.85;3.80;;;;;;;;;;4981039;28;92399;-61
2023/01/05 07:07:15;;;;;;;23.77;3.90;;;;;;;;;;4981372;28;92133;-62
2023/01/05 07:09:41;;;;;;;22.67;4.47;;;;;;;;;;4986809;28;92512;-61
2023/01/05 07:12:07;;;;;;;23.52;3.83;;;;;;;;;;4980846;28;92902;-62
2023/01/05 07:14:34;;;;;;;23.70;4.03;;;;;;;;;;4981093;28;93587;-61
2023/01/05 07:17:01;;;;;;;20.70;4.25;;;;;;;;;;4984603;28;92327;-62
2023/01/05 07:19:27;;;;;;;23.67;3.80;;;;;;;;;;4981341;28;92052;-61
2023/01/05 07:21:53;;;;;;;19.58;3.83;;;;;;;;;;4980058;28;94737;-63
2023/01/05 07:24:22;;;;;;;21.42;4.30;;;;;;;;;;4980779;28;92713;-62
2023/01/05 07:26:49;;;;;;;18.42;3.33;;;;;;;;;;4981584;28;92400;-61
2023/01/05 07:29:15;;;;;;;23.98;3.95;;;;;;;;;;4981269;28;92666;-61
2023/01/05 07:31:42;;;;;;;20.65;3.90;;;;;;;;;;4996175;28;93026;-60
2023/01/05 07:34:09;;;;;;;23.08;3.83;;;;;;;;;;4981323;28;92173;-60
2023/01/05 07:36:35;;;;;;;16.63;3.17;;;;;;;;;;4975209;28;92764;-62
2023/01/05 07:39:02;;;;;;;22.52;3.83;;;;;;;;;;4984345;28;91971;-61
2023/01/05 07:41:28;;;;;;;21.52;3.70;;;;;;;;;;4981240;28;92665;-63
2023/01/05 07:43:55;;;;;;;17.65;3.10;;;;;;;;;;4980031;28;92764;-61
2023/01/05 07:46:21;;;;;;;22.17;3.63;;;;;;;;;;4980153;28;94840;-62
2023/01/05 07:48:48;;;;;;;21.60;3.80;;;;;;;;;;4980969;28;94909;-62
2023/01/05 07:51:14;;;;;;;19.42;4.25;;;;;;;;;;4981230;28;92439;-61
2023/01/05 07:53:41;;;;;;;20.63;4.30;;;;;;;;;;4980899;28;92038;-61
2023/01/05 07:56:10;;;;;;;23.45;4.28;;;;;;;;;;4981336;28;93238;-63
2023/01/05 07:58:37;;;;;;;18.60;3.75;;;;;;;;;;4980604;28;92791;-62
2023/01/05 08:01:04;;;;;;;19.90;3.63;;;;;;;;;;4983431;28;92136;-62
2023/01/05 08:03:31;;;;;;;20.52;3.70;;;;;;;;;;4980029;28;92340;-61
2023/01/05 08:05:57;;;;;;;21.60;4.05;;;;;;;;;;4980726;28;91987;-64
2023/01/05 08:08:24;;;;;;;22.60;3.88;;;;;;;;;;4980209;28;92531;-62
2023/01/05 08:10:50;;;;;;;18.27;3.72;;;;;;;;;;4978079;28;95883;-62
2023/01/05 08:16:01;;;;;;;18.83;3.20;;;;;;;;;;4980613;28;92437;-60
2023/01/05 08:18:28;;;;;;;16.90;3.58;;;;;;;;;;4979565;28;92958;-62
2023/01/05 08:20:56;;;;;;;16.77;2.90;;;;;;;;;;4996776;28;92147;-61
2023/01/05 08:23:23;;;;;;;17.98;3.70;;;;;;;;;;4979335;28;92926;-61
2023/01/05 08:25:52;;;;;;;13.90;3.05;;;;;;;;;;4980827;28;92588;-62
2023/01/05 08:28:18;;;;;;;20.33;3.88;;;;;;;;;;4983321;28;94449;-62
2023/01/05 08:30:45;;;;;;;23.38;3.40;;;;;;;;;;4983379;28;92719;-62
2023/01/05 08:33:12;;;;;;;22.75;3.78;;;;;;;;;;4982295;28;92597;-62
2023/01/05 08:35:42;;;;;;;19.13;3.35;;;;;;;;;;4981511;28;94407;-61
2023/01/05 08:38:09;;;;;;;18.15;3.10;;;;;;;;;;4982918;28;92801;-61
2023/01/05 08:40:36;;;;;;;19.15;3.33;;;;;;;;;;4983703;28;92619;-61
2023/01/05 08:43:03;;;;;;;18.75;3.38;;;;;;;;;;4985728;28;92505;-61
2023/01/05 08:45:30;;;;;;;18.75;3.63;;;;;;;;;;4983316;28;92237;-62
2023/01/05 08:47:57;;;;;;;19.27;3.78;;;;;;;;;;4982698;28;92622;-62
2023/01/05 08:50:23;;;;;;;18.55;3.72;;;;;;;;;;4981386;28;92280;-62
2023/01/05 08:52:50;;;;;;;20.92;3.70;;;;;;;;;;4983708;28;91785;-63
2023/01/05 08:55:16;;;;;;;17.67;3.53;;;;;;;;;;4983235;28;92202;-62
2023/01/05 08:57:43;;;;;;;23.13;4.20;;;;;;;;;;4982303;28;93444;-62
2023/01/05 09:00:09;;;;;;;19.58;3.75;;;;;;;;;;4979103;28;94736;-62
2023/01/05 09:02:36;;;;;;;19.45;3.60;;;;;;;;;;4963207;28;95324;-63
2023/01/05 09:05:03;;;;;;;19.17;3.60;;;;;;;;;;4984274;28;92760;-63
2023/01/05 09:07:29;;;;;;;12.95;2.60;;;;;;;;;;4982863;28;92880;-63
2023/01/05 09:09:55;;;;;;;17.05;3.03;;;;;;;;;;4982720;28;92762;-63
2023/01/05 09:12:22;;;;;;;14.30;2.90;;;;;;;;;;4982515;28;92350;-62
2023/01/05 09:14:54;;;;;;;13.60;2.95;;;;;;;;;;4978935;28;92354;-62
2023/01/05 09:17:20;;;;;;;13.05;2.78;;;;;;;;;;4982749;28;91730;-61
2023/01/05 09:19:47;;;;;;;12.55;3.00;;;;;;;;;;4981375;28;92316;-63
2023/01/05 09:22:13;;;;;;;10.88;2.55;;;;;;;;;;4982252;28;92790;-62
2023/01/05 09:24:40;;;;;;;11.32;2.45;;;;;;;;;;4980583;28;95444;-62
2023/01/05 09:27:06;;;;;;;11.88;2.25;;;;;;;;;;4985488;28;92103;-60
2023/01/05 09:29:32;;;;;;;11.18;2.83;;;;;;;;;;4981839;28;92790;-59
2023/01/05 09:31:59;;;;;;;13.10;2.80;;;;;;;;;;4986309;28;92822;-61
2023/01/05 09:34:25;;;;;;;12.35;2.40;;;;;;;;;;4986393;28;92504;-61
2023/01/05 09:36:52;;;;;;;10.48;2.35;;;;;;;;;;4975916;28;93308;-62
2023/01/05 09:39:18;;;;;;;11.23;2.50;;;;;;;;;;4981621;28;92415;-62
2023/01/05 09:41:50;;;;;;;11.95;2.30;;;;;;;;;;4982812;28;92756;-61
2023/01/05 09:44:25;;;;;;;8.88;2.25;;;;;;;;;;4981762;28;92521;-60
2023/01/05 09:46:52;;;;;;;11.98;2.28;;;;;;;;;;4977367;28;92391;-61
2023/01/05 09:49:20;;;;;;;11.98;2.53;;;;;;;;;;4983254;28;94969;-61
2023/01/05 09:51:49;;;;;;;15.82;3.30;;;;;;;;;;4982079;28;92176;-59
2023/01/05 09:54:16;;;;;;;11.07;2.40;;;;;;;;;;4979231;28;92486;-61
2023/01/05 09:56:44;;;;;;;11.57;2.40;;;;;;;;;;4971750;28;94076;-62
2023/01/05 09:59:32;;;;;;;13.57;2.55;;;;;;;;;;4976221;28;93147;-66
2023/01/05 10:02:02;;;;;;;11.32;2.50;;;;;;;;;;4977881;28;92116;-63
2023/01/05 10:04:30;;;;;;;9.40;2.05;;;;;;;;;;4959199;28;93796;-64
2023/01/05 10:07:05;;;;;;;14.00;2.50;;;;;;;;;;4961806;28;91823;-66
2023/01/05 10:09:34;;;;;;;13.40;2.25;;;;;;;;;;4964801;28;92725;-62
2023/01/05 10:15:03;;;;;;;9.70;2.05;;;;;;;;;;4968827;28;94759;-66
2023/01/05 10:17:31;;;;;;;10.35;2.20;;;;;;;;;;4982460;28;92755;-67
2023/01/05 10:20:15;;;;;;;8.27;2.05;;;;;;;;;;4981861;28;92852;-60
2023/01/05 10:22:44;;;;;;;10.48;2.08;;;;;;;;;;4979602;28;92868;-59
2023/01/05 10:25:17;;;;;;;10.68;2.28;;;;;;;;;;4979941;28;92680;-60
2023/01/05 10:28:01;;;;;;;10.50;2.47;;;;;;;;;;4974437;28;93148;-60
2023/01/05 10:30:39;;;;;;;9.43;2.35;;;;;;;;;;4972516;28;92568;-60
2023/01/05 10:33:14;;;;;;;9.13;2.20;;;;;;;;;;4980274;28;91847;-60
2023/01/05 10:35:54;;;;;;;9.45;2.10;;;;;;;;;;4961672;28;92357;-60
2023/01/05 10:38:43;;;;;;;9.57;2.15;;;;;;;;;;4968992;28;93237;-60
2023/01/05 10:41:09;;;;;;;;;;;;;;;;;;4965330;28;94892;-60
2023/01/05 10:43:41;;;;;;;12.75;2.40;;;;;;;;;;4965580;28;123779;-60
2023/01/05 10:46:09;;;;;;;11.85;2.17;;;;;;;;;;4961468;28;92771;-60
2023/01/05 10:48:56;;;;;;;10.77;2.30;;;;;;;;;;4961780;28;92578;-61
2023/01/05 10:51:22;;;;;;;11.63;2.15;;;;;;;;;;4963939;28;92800;-62
2023/01/05 10:53:49;;;;;;;7.80;1.85;;;;;;;;;;4963115;28;92828;-62
2023/01/05 10:56:22;;;;;;;9.57;2.40;;;;;;;;;;4968416;28;92065;-62
2023/01/05 10:59:04;;;;;;;9.52;2.15;;;;;;;;;;4973947;28;92382;-61
2023/01/05 11:01:31;;;;;;;9.85;2.05;;;;;;;;;;4962548;28;92377;-62
2023/01/05 11:04:03;;;;;;;10.63;2.28;;;;;;;;;;4965051;28;93305;-61
2023/01/05 11:06:50;;;;;;;11.02;2.25;;;;;;;;;;4977284;28;95265;-61
2023/01/05 11:09:19;;;;;;;9.98;2.08;;;;;;;;;;4970290;28;92734;-61
2023/01/05 11:11:54;;;;;;;8.07;1.92;;;;;;;;;;4975179;28;92474;-61
2023/01/05 11:14:21;;;;;;;9.10;2.00;;;;;;;;;;4975770;28;92580;-61
2023/01/05 11:16:52;;;;;;;7.50;2.00;;;;;;;;;;4970913;28;92505;-61
2023/01/05 11:19:24;;;;;;;9.73;2.00;;;;;;;;;;4971109;28;92811;-60
2023/01/05 11:21:51;;;;;;;11.95;1.80;;;;;;;;;;4960310;28;93871;-61
2023/01/05 11:24:31;;;;;;;9.13;2.00;;;;;;;;;;4973150;28;92457;-61
2023/01/05 11:26:59;;;;;;;8.73;2.17;;;;;;;;;;4977891;28;93181;-61
2023/01/05 11:29:25;;;;;;;8.98;1.85;;;;;;;;;;4971332;28;92264;-61
2023/01/05 11:31:51;;;;;;;7.00;1.67;;;;;;;;;;4980395;28;94681;-60
2023/01/05 11:34:18;;;;;;;9.00;2.30;;;;;;;;;;4969034;28;92599;-62
2023/01/05 11:36:51;;;;;;;10.75;2.08;;;;;;;;;;4965950;28;92933;-61
2023/01/05 11:39:18;;;;;;;;;;;;;;;;;;4967700;28;92589;-62
2023/01/05 11:41:44;;;;;;;9.23;1.83;;;;;;;;;;4973267;28;115353;-65
2023/01/05 11:44:19;;;;;;;10.02;2.10;;;;;;;;;;4968856;28;92697;-66
2023/01/05 11:46:47;;;;;;;8.23;1.85;;;;;;;;;;4962547;28;92965;-65
2023/01/05 11:49:13;;;;;;;;;;;;;;;;;;4975095;28;91425;-66
2023/01/05 11:51:40;;;;;;;8.32;1.73;;;;;;;;;;4970381;28;92029;-65
2023/01/05 11:54:27;;;;;;;8.88;1.70;;;;;;;;;;4963618;28;92565;-65
2023/01/05 11:57:11;;;;;;;6.43;1.85;;;;;;;;;;4976698;28;94732;-65
2023/01/05 11:59:37;;;;;;;8.95;1.80;;;;;;;;;;4974432;28;95093;-64
2023/01/05 12:02:10;;;;;;;8.23;2.00;;;;;;;;;;4981769;28;93049;-65
2023/01/05 12:04:49;;;;;;;9.25;2.17;;;;;;;;;;4977154;28;92574;-65
2023/01/05 12:07:29;;;;;;;8.25;1.85;;;;;;;;;;4983164;28;93232;-65
2023/01/05 12:10:01;;;;;;;8.45;1.80;;;;;;;;;;4969747;28;92494;-65
2023/01/05 12:12:40;;;;;;;8.07;1.95;;;;;;;;;;4963801;28;92689;-65
2023/01/05 12:15:25;;;;;;;8.07;1.83;;;;;;;;;;4964843;28;93879;-65
2023/01/05 12:17:58;;;;;;;9.35;1.80;;;;;;;;;;4973330;28;92227;-66
2023/01/05 12:20:27;;;;;;;8.25;1.85;;;;;;;;;;4966279;28;93607;-66
2023/01/05 12:23:31;;;;;;;9.85;1.75;;;;;;;;;;4963439;28;95477;-65
2023/01/05 12:26:09;;;;;;;8.30;1.70;;;;;;;;;;4923623;28;92584;-66
2023/01/05 12:28:37;;;;;;;7.15;1.75;;;;;;;;;;4963363;28;92956;-66
2023/01/05 12:31:19;;;;;;;7.75;1.77;;;;;;;;;;4963955;28;92611;-65
2023/01/05 12:34:24;;;;;;;8.13;1.58;;;;;;;;;;4968390;28;92618;-65
2023/01/05 12:37:09;;;;;;;8.75;1.88;;;;;;;;;;4974381;28;94052;-65
2023/01/05 12:39:36;;;;;;;7.28;1.83;;;;;;;;;;4974559;28;93520;-67
2023/01/05 12:42:27;;;;;;;6.22;1.60;;;;;;;;;;4976266;28;93352;-67
2023/01/05 12:45:01;;;;;;;6.53;1.50;;;;;;;;;;4974364;28;93572;-66
2023/01/05 12:47:28;;;;;;;6.68;1.98;;;;;;;;;;4977709;28;92379;-66
2023/01/05 12:49:58;;;;;;;6.15;1.60;;;;;;;;;;4975818;28;94505;-66
2023/01/05 12:52:31;;;;;;;5.72;1.60;;;;;;;;;;4976801;28;93824;-65
2023/01/05 12:55:01;;;;;;;6.35;1.80;;;;;;;;;;4963638;28;92919;-65
2023/01/05 12:57:47;;;;;;;5.85;1.65;;;;;;;;;;4962673;28;92803;-67
2023/01/05 13:00:15;;;;;;;6.38;1.40;;;;;;;;;;4968910;28;92437;-65
2023/01/05 13:02:52;;;;;;;7.30;1.77;;;;;;;;;;4966975;28;92802;-66
2023/01/05 13:05:26;;;;;;;6.70;1.50;;;;;;;;;;4960759;28;93439;-66
2023/01/05 13:07:54;;;;;;;5.95;1.70;;;;;;;;;;4960517;28;91884;-66
2023/01/05 13:10:32;;;;;;;7.32;1.80;;;;;;;;;;4974464;28;92323;-65
2023/01/05 13:13:01;;;;;;;7.00;1.80;;;;;;;;;;4962262;28;94556;-65
2023/01/05 13:15:40;;;;;;;6.55;1.80;;;;;;;;;;4973357;28;94501;-64
2023/01/05 13:18:13;;;;;;;8.43;1.98;;;;;;;;;;4979630;28;92571;-65
2023/01/05 13:20:42;;;;;;;8.15;1.70;;;;;;;;;;4981991;28;92419;-65
2023/01/05 13:23:15;;;;;;;8.40;1.75;;;;;;;;;;4979408;28;92683;-66
2023/01/05 13:25:45;;;;;;;6.78;1.73;;;;;;;;;;4964508;28;93252;-64
2023/01/05 13:28:22;;;;;;;7.40;1.98;;;;;;;;;;4979240;28;92376;-65
2023/01/05 13:31:10;;;;;;;6.47;1.60;;;;;;;;;;4966996;28;92364;-65
2023/01/05 13:34:02;;;;;;;7.25;1.75;;;;;;;;;;4967418;28;92209;-65
2023/01/05 13:36:29;;;;;;;7.97;1.70;;;;;;;;;;4975752;28;92431;-65
2023/01/05 13:39:30;;;;;;;6.07;1.70;;;;;;;;;;4972878;28;92787;-65
2023/01/05 13:42:16;;;;;;;6.95;2.00;;;;;;;;;;4922455;28;94893;-65
2023/01/05 13:44:54;;;;;;;7.68;1.95;;;;;;;;;;4968542;28;95362;-65
2023/01/05 13:47:20;;;;;;;5.95;1.67;;;;;;;;;;4975629;28;93446;-65
2023/01/05 13:50:05;;;;;;;8.27;1.98;;;;;;;;;;4965350;28;92244;-65
2023/01/05 13:52:41;;;;;;;7.28;1.88;;;;;;;;;;4976983;28;93946;-65
2023/01/05 13:55:11;;;;;;;7.05;1.42;;;;;;;;;;4962642;28;92788;-65
2023/01/05 13:57:47;;;;;;;6.43;1.45;;;;;;;;;;4964456;28;92555;-65
2023/01/05 14:00:29;;;;;;;6.85;1.52;;;;;;;;;;4978378;28;94355;-65
2023/01/05 14:03:12;;;;;;;7.20;1.70;;;;;;;;;;4964179;28;92382;-65
2023/01/05 14:05:53;;;;;;;8.20;1.65;;;;;;;;;;4966935;28;95393;-65
2023/01/05 14:08:22;;;;;;;5.90;1.60;;;;;;;;;;4979313;28;95107;-65
2023/01/05 14:11:07;;;;;;;7.85;1.60;;;;;;;;;;4977439;28;93976;-65
2023/01/05 14:13:54;;;;;;;7.35;1.98;;;;;;;;;;4978517;28;93480;-65
2023/01/05 14:16:36;;;;;;;7.85;1.90;;;;;;;;;;4980722;28;93018;-65
2023/01/05 14:19:12;;;;;;;7.68;1.73;;;;;;;;;;4968564;28;92704;-65
2023/01/05 14:21:47;;;;;;;8.70;1.95;;;;;;;;;;4973608;28;92463;-65
2023/01/05 14:24:30;;;;;;;8.40;1.85;;;;;;;;;;4971370;28;93109;-65
2023/01/05 14:27:07;;;;;;;9.00;2.13;;;;;;;;;;4975297;28;93172;-65
2023/01/05 14:29:42;;;;;;;6.38;2.03;;;;;;;;;;4963736;28;92812;-65
2023/01/05 14:32:13;;;;;;;8.57;1.85;;;;;;;;;;4986363;28;92671;-65
2023/01/05 14:34:47;;;;;;;9.55;1.90;;;;;;;;;;4974003;28;94717;-66
2023/01/05 14:37:19;;;;;;;8.88;2.25;;;;;;;;;;4962027;28;93264;-65
2023/01/05 14:39:46;;;;;;;9.07;2.00;;;;;;;;;;4964201;28;93191;-65
2023/01/05 14:42:13;;;;;;;10.48;2.10;;;;;;;;;;4960316;28;92581;-82
2023/01/05 14:44:40;;;;;;;10.30;2.20;;;;;;;;;;4942016;28;95205;-79
2023/01/05 14:47:07;;;;;;;10.63;2.47;;;;;;;;;;4965872;28;92435;-78
2023/01/05 14:49:33;;;;;;;10.77;2.45;;;;;;;;;;4960701;28;93160;-67
2023/01/05 14:52:01;;;;;;;10.27;2.20;;;;;;;;;;4976849;28;91951;-68
2023/01/05 14:54:57;;;;;;;11.27;2.42;;;;;;;;;;4980056;28;92149;-67
2023/01/05 14:57:32;;;;;;;10.85;2.22;;;;;;;;;;4962552;28;92739;-66
2023/01/05 15:00:03;;;;;;;10.38;2.28;;;;;;;;;;4966879;28;94817;-67
2023/01/05 15:02:31;;;;;;;10.07;2.22;;;;;;;;;;4981223;28;95068;-70
2023/01/05 15:04:59;;;;;;;10.38;2.22;;;;;;;;;;4980328;28;92745;-64
2023/01/05 15:07:34;;;;;;;10.93;2.35;;;;;;;;;;4984291;28;92443;-68
2023/01/05 15:10:13;;;;;;;10.35;2.33;;;;;;;;;;4968832;28;93159;-77
2023/01/05 15:13:06;;;;;;;8.55;2.22;;;;;;;;;;4972057;28;92167;-67
2023/01/05 15:15:36;;;;;;;9.50;2.20;;;;;;;;;;4961741;28;93109;-74
2023/01/05 15:18:26;;;;;;;10.18;2.28;;;;;;;;;;4972208;28;91859;-76
2023/01/05 15:21:11;;;;;;;10.70;1.98;;;;;;;;;;4964302;28;92646;-77
2023/01/05 15:23:56;;;;;;;10.13;2.50;;;;;;;;;;4968936;28;92196;-77
2023/01/05 15:26:29;;;;;;;9.02;2.28;;;;;;;;;;4984625;28;95420;-69
2023/01/05 15:29:17;;;;;;;10.15;1.90;;;;;;;;;;4965513;28;92606;-72